Time;durP1;ratioP1;P1;durP2;ratioP2;P2;SDS_P1;SDS_P2;PMS_P1;PMS_P2;Temp;Humidity;BMP_temperature;BMP_pressure;BME280_temperature;BME280_humidity;BME280_pressure;Samples;Min_cycle;Max_cycle;Signal;HPM_P1;HPM_P2
2024/03/24 00:01:04;;;;;;;3.33;0.88;;;6.10;80.80;;;;;;5042607;28;20025;-59
2024/03/24 00:03:29;;;;;;;2.03;1.00;;;6.10;80.70;;;;;;5045056;28;20097;-60
2024/03/24 00:05:55;;;;;;;3.03;0.95;;;6.00;80.90;;;;;;5048196;28;20137;-59
2024/03/24 00:08:20;;;;;;;1.23;0.70;;;6.00;80.70;;;;;;5048578;28;20032;-60
2024/03/24 00:10:46;;;;;;;1.27;0.60;;;6.00;80.80;;;;;;5045201;28;20033;-61
2024/03/24 00:13:11;;;;;;;0.65;0.40;;;6.00;81.30;;;;;;5044457;28;20037;-60
2024/03/24 00:15:37;;;;;;;0.73;0.30;;;6.00;81.30;;;;;;5042288;28;20451;-59
2024/03/24 00:18:03;;;;;;;0.65;0.40;;;6.00;81.30;;;;;;5047904;28;20124;-60
2024/03/24 00:20:28;;;;;;;0.52;0.43;;;6.00;81.40;;;;;;5042071;28;20045;-59
2024/03/24 00:22:54;;;;;;;0.55;0.40;;;6.00;81.60;;;;;;5047047;28;20044;-60
2024/03/24 00:25:19;;;;;;;0.88;0.40;;;6.00;81.50;;;;;;5053660;28;20082;-61
2024/03/24 00:27:45;;;;;;;0.50;0.40;;;6.00;81.60;;;;;;5047093;28;20072;-61
2024/03/24 00:30:11;;;;;;;0.43;0.40;;;6.00;81.10;;;;;;5045603;28;20493;-61
2024/03/24 00:32:36;;;;;;;0.60;0.60;;;6.00;81.30;;;;;;5046961;28;20045;-60
2024/03/24 00:35:02;;;;;;;1.38;0.40;;;6.00;81.60;;;;;;5044335;28;20436;-62
2024/03/24 00:37:27;;;;;;;1.27;0.40;;;6.00;81.80;;;;;;5047706;28;20037;-61
2024/03/24 00:39:53;;;;;;;0.82;0.40;;;6.00;81.90;;;;;;5043490;28;20040;-60
2024/03/24 00:42:18;;;;;;;0.32;0.32;;;6.00;81.90;;;;;;5046554;28;20025;-61
2024/03/24 00:44:44;;;;;;;0.55;0.47;;;6.00;81.90;;;;;;5044000;28;20526;-61
2024/03/24 00:47:10;;;;;;;1.50;0.60;;;6.00;82.00;;;;;;5043070;28;20409;-62
2024/03/24 00:49:36;;;;;;;0.52;0.47;;;6.00;82.10;;;;;;5040095;28;20029;-60
2024/03/24 00:52:01;;;;;;;0.50;0.40;;;6.00;82.00;;;;;;5045448;28;20216;-61
2024/03/24 00:54:27;;;;;;;1.60;0.50;;;6.00;81.90;;;;;;5045420;28;20036;-60
2024/03/24 00:56:53;;;;;;;1.90;0.50;;;6.00;82.00;;;;;;5048063;28;20037;-60
2024/03/24 00:59:19;;;;;;;1.90;0.55;;;6.00;82.30;;;;;;5043719;28;20083;-60
2024/03/24 01:01:44;;;;;;;0.40;0.30;;;6.00;82.60;;;;;;5042375;28;20519;-61
2024/03/24 01:04:10;;;;;;;0.65;0.43;;;6.00;82.50;;;;;;5050254;28;20036;-59
2024/03/24 01:06:35;;;;;;;1.38;0.45;;;6.00;82.50;;;;;;5050470;28;20163;-61
2024/03/24 01:09:03;;;;;;;0.43;0.40;;;6.00;82.40;;;;;;5051297;28;20037;-60
2024/03/24 01:11:29;;;;;;;2.35;0.68;;;6.00;82.70;;;;;;5049919;28;20037;-61
2024/03/24 01:13:55;;;;;;;2.45;0.75;;;6.00;82.30;;;;;;5051591;28;20523;-58
2024/03/24 01:16:21;;;;;;;1.50;0.52;;;6.00;82.50;;;;;;5048511;28;20033;-60
2024/03/24 01:18:46;;;;;;;0.45;0.40;;;6.00;82.90;;;;;;5052074;28;20033;-59
2024/03/24 01:21:12;;;;;;;1.77;0.70;;;5.90;82.60;;;;;;5051388;28;20043;-59
2024/03/24 01:23:38;;;;;;;1.15;0.70;;;5.90;82.40;;;;;;5049614;28;20428;-57
2024/03/24 01:26:03;;;;;;;1.70;0.55;;;5.90;82.50;;;;;;5050669;28;20262;-61
2024/03/24 01:28:29;;;;;;;0.82;0.60;;;5.90;82.60;;;;;;5048207;28;20033;-60
2024/03/24 01:30:54;;;;;;;0.85;0.60;;;5.90;82.80;;;;;;5051161;28;20500;-59
2024/03/24 01:33:20;;;;;;;0.60;0.52;;;5.90;82.50;;;;;;5051992;28;20044;-58
2024/03/24 01:35:48;;;;;;;1.45;0.60;;;5.90;82.60;;;;;;5049613;28;20041;-59
2024/03/24 01:38:14;;;;;;;3.35;0.75;;;5.90;83.00;;;;;;5047580;28;20053;-59
2024/03/24 01:40:49;;;;;;;0.93;0.68;;;5.80;83.30;;;;;;5043222;28;20114;-61
2024/03/24 01:43:16;;;;;;;1.13;0.70;;;5.80;83.70;;;;;;5042960;28;20037;-61
2024/03/24 01:45:43;;;;;;;1.80;0.80;;;5.90;83.30;;;;;;5039711;28;20086;-60
2024/03/24 01:48:09;;;;;;;3.47;0.90;;;5.90;83.30;;;;;;5043337;28;20392;-60
2024/03/24 01:50:35;;;;;;;2.05;0.93;;;5.90;83.30;;;;;;5040187;28;20037;-58
2024/03/24 01:53:01;;;;;;;2.78;0.90;;;5.90;83.60;;;;;;5041854;28;20155;-60
2024/03/24 01:55:27;;;;;;;1.42;0.80;;;5.90;83.50;;;;;;5043205;28;20040;-61
2024/03/24 01:57:53;;;;;;;1.00;0.75;;;5.90;83.30;;;;;;5039267;28;20360;-60
2024/03/24 02:00:18;;;;;;;2.45;1.00;;;5.90;83.40;;;;;;5043198;28;20403;-58
2024/03/24 02:02:44;;;;;;;1.40;0.70;;;6.00;83.60;;;;;;5039381;28;20044;-57
2024/03/24 02:05:10;;;;;;;2.67;0.90;;;6.00;83.90;;;;;;5038507;28;20032;-59
2024/03/24 02:07:35;;;;;;;3.55;0.88;;;6.00;84.20;;;;;;5042064;28;20471;-59
2024/03/24 02:10:01;;;;;;;2.80;0.80;;;6.00;84.00;;;;;;5042342;28;20406;-60
2024/03/24 02:12:26;;;;;;;1.30;0.85;;;6.00;84.00;;;;;;5041865;28;20123;-61
2024/03/24 02:14:52;;;;;;;2.03;0.70;;;6.00;83.70;;;;;;5041483;28;20121;-60
2024/03/24 02:17:17;;;;;;;2.47;0.70;;;6.00;83.70;;;;;;5039198;28;20041;-60
2024/03/24 02:19:43;;;;;;;1.75;0.55;;;6.10;84.00;;;;;;5041424;28;20056;-60
2024/03/24 02:22:09;;;;;;;3.50;0.85;;;6.10;83.50;;;;;;5042979;28;20467;-60
2024/03/24 02:24:34;;;;;;;2.45;0.70;;;6.10;84.00;;;;;;5046489;28;20040;-59
2024/03/24 02:27:00;;;;;;;1.75;0.70;;;6.10;83.90;;;;;;5041907;28;20022;-60
2024/03/24 02:29:25;;;;;;;1.52;0.70;;;6.10;83.50;;;;;;5044362;28;20040;-60
2024/03/24 02:31:51;;;;;;;1.10;0.60;;;6.10;83.50;;;;;;5044662;28;20566;-61
2024/03/24 02:34:17;;;;;;;0.80;0.60;;;6.10;83.30;;;;;;5047945;28;20029;-61
2024/03/24 02:36:42;;;;;;;1.15;0.63;;;6.10;83.50;;;;;;5039744;28;20032;-61
2024/03/24 02:39:08;;;;;;;1.40;0.63;;;6.10;83.30;;;;;;5039418;28;20033;-60
2024/03/24 02:41:34;;;;;;;1.85;0.70;;;6.10;83.30;;;;;;5047063;28;20029;-62
2024/03/24 02:43:59;;;;;;;1.48;0.68;;;6.20;83.30;;;;;;5043556;28;20029;-61
2024/03/24 02:46:25;;;;;;;0.65;0.55;;;6.10;83.10;;;;;;5041680;28;20040;-59
2024/03/24 02:48:51;;;;;;;1.58;0.60;;;6.10;83.20;;;;;;5044922;28;20036;-61
2024/03/24 02:51:16;;;;;;;1.15;0.60;;;6.10;83.20;;;;;;5046122;28;20053;-59
2024/03/24 02:53:42;;;;;;;0.60;0.60;;;6.10;83.00;;;;;;5048195;28;20496;-59
2024/03/24 02:56:10;;;;;;;1.77;0.60;;;6.10;83.40;;;;;;5043847;28;20079;-61
2024/03/24 02:58:36;;;;;;;1.83;0.70;;;6.10;83.30;;;;;;5044159;28;22454;-59
2024/03/24 03:01:01;;;;;;;1.55;0.60;;;6.10;83.20;;;;;;5042139;28;20038;-61
2024/03/24 03:03:27;;;;;;;0.85;0.73;;;6.10;83.20;;;;;;5038691;28;20144;-58
2024/03/24 03:05:52;;;;;;;0.93;0.57;;;6.00;82.90;;;;;;5046323;28;20522;-61
2024/03/24 03:08:18;;;;;;;1.27;0.60;;;6.10;83.20;;;;;;5043673;28;20029;-59
2024/03/24 03:10:44;;;;;;;0.93;0.50;;;6.00;83.20;;;;;;5042882;28;20116;-62
2024/03/24 03:13:09;;;;;;;1.70;0.70;;;6.00;83.20;;;;;;5038149;28;20025;-58
2024/03/24 03:15:35;;;;;;;2.50;0.60;;;6.00;83.10;;;;;;5037403;28;20037;-59
2024/03/24 03:18:01;;;;;;;1.95;0.70;;;6.00;83.00;;;;;;5050045;28;20083;-60
2024/03/24 03:20:26;;;;;;;1.25;0.70;;;6.00;83.00;;;;;;5046000;28;20033;-60
2024/03/24 03:22:52;;;;;;;0.77;0.60;;;6.00;83.10;;;;;;5045404;28;20040;-60
2024/03/24 03:25:17;;;;;;;1.13;0.85;;;6.00;83.20;;;;;;5045176;28;20119;-60
2024/03/24 03:27:44;;;;;;;1.83;0.70;;;6.00;83.40;;;;;;5041600;28;20394;-59
2024/03/24 03:30:10;;;;;;;0.73;0.70;;;5.90;83.40;;;;;;5044394;28;21303;-59
2024/03/24 03:32:37;;;;;;;0.90;0.65;;;5.90;83.60;;;;;;5044093;28;20029;-60
2024/03/24 03:35:03;;;;;;;0.65;0.60;;;5.90;84.60;;;;;;5041345;28;20030;-60
2024/03/24 03:37:28;;;;;;;0.80;0.60;;;5.90;83.60;;;;;;5045206;28;20098;-59
2024/03/24 03:39:54;;;;;;;0.50;0.50;;;5.90;83.70;;;;;;5034572;28;20045;-59
2024/03/24 03:42:20;;;;;;;0.77;0.73;;;5.90;83.90;;;;;;5041401;28;20025;-61
2024/03/24 03:44:46;;;;;;;1.38;0.70;;;5.90;84.00;;;;;;5043150;28;20040;-59
2024/03/24 03:47:14;;;;;;;0.80;0.50;;;5.90;84.10;;;;;;5044166;28;20033;-60
2024/03/24 03:49:40;;;;;;;0.93;0.55;;;5.90;84.00;;;;;;5042690;28;20033;-61
2024/03/24 03:52:06;;;;;;;0.50;0.50;;;5.90;84.20;;;;;;5043243;28;20036;-61
2024/03/24 03:54:31;;;;;;;0.40;0.40;;;5.90;84.20;;;;;;5042455;28;20045;-61
2024/03/24 03:56:57;;;;;;;0.30;0.30;;;5.90;83.90;;;;;;5043358;28;20110;-59
2024/03/24 03:59:24;;;;;;;0.32;0.32;;;5.80;83.80;;;;;;5042005;28;20033;-60
2024/03/24 04:01:50;;;;;;;0.73;0.30;;;5.80;83.90;;;;;;5041920;28;20041;-61
2024/03/24 04:04:15;;;;;;;0.73;0.50;;;5.80;83.90;;;;;;5046591;28;20087;-61
2024/03/24 04:06:41;;;;;;;0.30;0.30;;;5.80;84.00;;;;;;5047650;28;20079;-60
2024/03/24 04:09:08;;;;;;;0.47;0.30;;;5.80;83.90;;;;;;5046137;28;20036;-60
2024/03/24 04:11:34;;;;;;;0.65;0.30;;;5.80;84.10;;;;;;5041466;28;20041;-62
2024/03/24 04:14:00;;;;;;;0.73;0.30;;;5.80;83.90;;;;;;5044854;28;20052;-60
2024/03/24 04:16:26;;;;;;;0.50;0.40;;;5.80;84.00;;;;;;5044642;28;20571;-60
2024/03/24 04:18:51;;;;;;;0.38;0.30;;;5.80;83.90;;;;;;5041337;28;20405;-62
2024/03/24 04:21:17;;;;;;;0.20;0.20;;;5.80;83.90;;;;;;5047646;28;20044;-61
2024/03/24 04:23:42;;;;;;;0.40;0.30;;;5.80;83.90;;;;;;5045806;28;20451;-59
2024/03/24 04:26:08;;;;;;;0.40;0.40;;;5.70;83.90;;;;;;5049422;28;20052;-62
2024/03/24 04:28:34;;;;;;;0.63;0.30;;;5.80;84.20;;;;;;5046939;28;20457;-61
2024/03/24 04:31:00;;;;;;;0.35;0.30;;;5.70;84.20;;;;;;5044951;28;20022;-62
2024/03/24 04:33:26;;;;;;;0.20;0.20;;;5.70;84.20;;;;;;5048795;28;20037;-61
2024/03/24 04:35:52;;;;;;;1.10;0.52;;;5.70;84.40;;;;;;5041610;28;20037;-60
2024/03/24 04:38:18;;;;;;;0.50;0.40;;;5.70;84.40;;;;;;5041769;28;20466;-61
2024/03/24 04:40:44;;;;;;;0.52;0.45;;;5.70;84.40;;;;;;5040220;28;20590;-61
2024/03/24 04:43:13;;;;;;;0.88;0.50;;;5.60;84.40;;;;;;5044892;28;20033;-61
2024/03/24 04:45:39;;;;;;;1.05;0.50;;;5.60;84.50;;;;;;5042282;28;20087;-61
2024/03/24 04:48:05;;;;;;;0.50;0.50;;;5.60;84.40;;;;;;5041157;28;20401;-59
2024/03/24 04:50:30;;;;;;;0.57;0.52;;;5.60;84.40;;;;;;5046247;28;20505;-59
2024/03/24 04:52:58;;;;;;;0.75;0.50;;;5.70;84.40;;;;;;5041477;28;20040;-61
2024/03/24 04:55:24;;;;;;;0.40;0.40;;;5.70;84.40;;;;;;5040371;28;20592;-59
2024/03/24 04:57:49;;;;;;;0.95;0.50;;;5.70;84.40;;;;;;5040920;28;20265;-61
2024/03/24 05:00:16;;;;;;;0.95;0.52;;;5.70;84.40;;;;;;5041055;28;20031;-60
2024/03/24 05:02:41;;;;;;;0.70;0.55;;;5.70;84.40;;;;;;5040121;28;20040;-61
2024/03/24 05:05:07;;;;;;;0.73;0.70;;;5.70;84.20;;;;;;5045160;28;20566;-59
2024/03/24 05:07:33;;;;;;;1.02;0.73;;;5.70;84.20;;;;;;5040878;28;20566;-61
2024/03/24 05:09:58;;;;;;;0.60;0.52;;;5.70;84.20;;;;;;5040105;28;20057;-61
2024/03/24 05:12:24;;;;;;;2.03;0.70;;;5.70;84.10;;;;;;5040825;28;20124;-62
2024/03/24 05:14:50;;;;;;;0.63;0.50;;;5.70;84.10;;;;;;5041174;28;20528;-61
2024/03/24 05:17:17;;;;;;;0.70;0.52;;;5.70;84.00;;;;;;5041178;28;20039;-62
2024/03/24 05:19:43;;;;;;;1.23;0.60;;;5.80;84.90;;;;;;5042913;28;20033;-60
2024/03/24 05:22:08;;;;;;;1.08;0.55;;;5.70;84.20;;;;;;5044002;28;20033;-60
2024/03/24 05:24:35;;;;;;;0.68;0.68;;;5.70;84.00;;;;;;5042148;28;20640;-61
2024/03/24 05:27:01;;;;;;;0.60;0.60;;;5.70;84.60;;;;;;5044379;28;20029;-59
2024/03/24 05:29:27;;;;;;;0.90;0.73;;;5.70;84.00;;;;;;5044697;28;20043;-59
2024/03/24 05:31:56;;;;;;;1.40;0.77;;;5.70;84.20;;;;;;5043009;28;20504;-60
2024/03/24 05:34:22;;;;;;;1.15;0.70;;;5.70;84.30;;;;;;5045057;28;20127;-60
2024/03/24 05:36:48;;;;;;;0.90;0.80;;;5.70;84.60;;;;;;5044554;28;20522;-61
2024/03/24 05:39:14;;;;;;;1.88;0.82;;;5.70;84.60;;;;;;5040428;28;20037;-60
2024/03/24 05:41:39;;;;;;;1.23;0.60;;;5.70;84.60;;;;;;5043073;28;20524;-60
2024/03/24 05:44:05;;;;;;;1.02;0.50;;;5.70;84.70;;;;;;5041207;28;20039;-61
2024/03/24 05:46:30;;;;;;;0.70;0.60;;;5.70;84.70;;;;;;5046746;28;20043;-61
2024/03/24 05:48:56;;;;;;;1.20;0.63;;;5.70;84.70;;;;;;5048738;28;20467;-62
2024/03/24 05:51:21;;;;;;;0.90;0.80;;;5.70;84.80;;;;;;5046393;28;20053;-61
2024/03/24 05:53:47;;;;;;;1.85;0.70;;;5.80;84.80;;;;;;5045728;28;20025;-61
2024/03/24 05:56:16;;;;;;;0.85;0.60;;;5.80;85.00;;;;;;5045210;28;20162;-60
2024/03/24 05:58:41;;;;;;;0.73;0.60;;;5.80;84.90;;;;;;5042827;28;20040;-61
2024/03/24 06:01:07;;;;;;;2.13;0.80;;;5.80;85.00;;;;;;5041442;28;20025;-62
2024/03/24 06:03:33;;;;;;;2.00;0.65;;;5.80;85.00;;;;;;5058076;28;20560;-61
2024/03/24 06:05:58;;;;;;;1.73;0.82;;;5.80;85.00;;;;;;5046178;28;20053;-61
2024/03/24 06:08:24;;;;;;;1.48;0.60;;;5.80;84.90;;;;;;5046248;28;20109;-61
2024/03/24 06:10:50;;;;;;;1.00;0.70;;;5.80;84.90;;;;;;5044170;28;20139;-62
2024/03/24 06:13:15;;;;;;;1.50;1.00;;;5.80;85.10;;;;;;5046290;28;20132;-60
2024/03/24 06:15:42;;;;;;;1.33;0.80;;;5.80;85.00;;;;;;5043579;28;20041;-62
2024/03/24 06:18:07;;;;;;;1.10;0.60;;;5.80;85.40;;;;;;5044557;28;20397;-62
2024/03/24 06:20:35;;;;;;;1.52;0.93;;;5.70;85.10;;;;;;5044061;28;20029;-62
2024/03/24 06:23:05;;;;;;;1.08;0.77;;;5.60;85.20;;;;;;5049467;28;20454;-61
2024/03/24 06:25:31;;;;;;;2.08;1.00;;;5.60;85.30;;;;;;5043709;28;20606;-62
2024/03/24 06:27:58;;;;;;;1.20;1.10;;;5.50;85.30;;;;;;5039971;28;20045;-62
2024/03/24 06:30:23;;;;;;;0.73;0.63;;;5.40;85.00;;;;;;5041819;28;20025;-62
2024/03/24 06:32:50;;;;;;;0.60;0.60;;;5.30;85.00;;;;;;5045797;28;20056;-62
2024/03/24 06:35:15;;;;;;;0.95;0.95;;;5.10;84.70;;;;;;5038023;28;20030;-63
2024/03/24 06:37:41;;;;;;;0.70;0.70;;;5.00;84.70;;;;;;5046632;28;20045;-62
2024/03/24 06:40:08;;;;;;;0.75;0.60;;;4.90;84.90;;;;;;5039525;28;20102;-63
2024/03/24 06:42:43;;;;;;;0.73;0.73;;;4.80;85.30;;;;;;5047558;28;20189;-62
2024/03/24 06:45:09;;;;;;;0.93;0.90;;;4.80;85.80;;;;;;5043623;28;20102;-63
2024/03/24 06:47:35;;;;;;;0.80;0.80;;;4.60;86.00;;;;;;5044966;28;20033;-62
2024/03/24 06:50:01;;;;;;;0.73;0.73;;;4.60;86.20;;;;;;5039118;28;20037;-62
2024/03/24 06:52:26;;;;;;;1.05;0.68;;;4.60;86.70;;;;;;5040954;28;20037;-62
2024/03/24 06:54:52;;;;;;;0.95;0.80;;;4.50;86.80;;;;;;5039055;28;20443;-61
2024/03/24 06:57:17;;;;;;;1.20;0.90;;;4.60;87.40;;;;;;5040221;28;20586;-62
2024/03/24 06:59:43;;;;;;;1.63;0.73;;;4.60;87.90;;;;;;5042782;28;20083;-61
2024/03/24 07:02:08;;;;;;;0.80;0.80;;;4.60;88.00;;;;;;5039433;28;20317;-61
2024/03/24 07:04:36;;;;;;;0.70;0.60;;;4.70;88.00;;;;;;5042865;28;20029;-61
2024/03/24 07:07:02;;;;;;;1.10;1.00;;;4.70;88.00;;;;;;5044672;28;20029;-60
2024/03/24 07:09:27;;;;;;;0.75;0.75;;;4.80;88.40;;;;;;5046307;28;20043;-62
2024/03/24 07:11:53;;;;;;;1.05;0.70;;;4.80;88.30;;;;;;5045944;28;20048;-61
2024/03/24 07:14:18;;;;;;;1.20;0.85;;;4.90;88.30;;;;;;5042332;28;20398;-61
2024/03/24 07:16:44;;;;;;;1.08;0.75;;;4.90;88.70;;;;;;5038803;28;20038;-60
2024/03/24 07:19:10;;;;;;;0.60;0.60;;;5.00;89.10;;;;;;5043237;28;20091;-61
2024/03/24 07:21:35;;;;;;;0.73;0.70;;;5.00;88.70;;;;;;5048325;28;20033;-61
2024/03/24 07:24:01;;;;;;;1.02;0.93;;;5.10;89.20;;;;;;5044054;28;20564;-62
2024/03/24 07:26:27;;;;;;;0.75;0.70;;;5.10;89.00;;;;;;5047272;28;20029;-61
2024/03/24 07:28:52;;;;;;;0.98;0.75;;;5.20;89.80;;;;;;5039244;28;20040;-60
2024/03/24 07:31:18;;;;;;;1.77;0.88;;;5.20;88.90;;;;;;5042212;28;20400;-60
2024/03/24 07:33:48;;;;;;;0.75;0.55;;;5.20;88.30;;;;;;5038792;28;20033;-61
2024/03/24 07:36:13;;;;;;;1.17;0.70;;;5.20;88.00;;;;;;5038272;28;20108;-61
2024/03/24 07:38:39;;;;;;;1.38;0.70;;;5.20;87.90;;;;;;5043903;28;20147;-62
2024/03/24 07:41:05;;;;;;;1.00;0.60;;;5.30;87.70;;;;;;5045863;28;20546;-62
2024/03/24 07:43:31;;;;;;;1.73;0.93;;;5.30;87.40;;;;;;5042615;28;20120;-61
2024/03/24 07:45:56;;;;;;;3.15;1.00;;;5.30;87.10;;;;;;5042826;28;20034;-61
2024/03/24 07:48:22;;;;;;;3.83;1.27;;;5.30;87.20;;;;;;5056492;28;20033;-60
2024/03/24 07:50:48;;;;;;;1.60;0.90;;;5.40;87.20;;;;;;5042080;28;20028;-61
2024/03/24 07:53:13;;;;;;;0.88;0.80;;;5.40;87.10;;;;;;5043809;28;20055;-59
2024/03/24 07:55:43;;;;;;;2.45;1.00;;;5.50;86.90;;;;;;5041741;28;20047;-61
2024/03/24 07:58:08;;;;;;;2.42;1.00;;;5.50;86.50;;;;;;5040421;28;20091;-61
2024/03/24 08:00:34;;;;;;;3.42;1.40;;;5.50;86.00;;;;;;5042451;28;20347;-59
2024/03/24 08:03:00;;;;;;;2.25;1.10;;;5.60;86.10;;;;;;5036741;28;22827;-61
2024/03/24 08:05:25;;;;;;;3.17;1.15;;;5.60;85.90;;;;;;5040118;28;20064;-61
2024/03/24 08:07:51;;;;;;;1.45;0.90;;;5.70;85.80;;;;;;5041173;28;20033;-61
2024/03/24 08:10:17;;;;;;;2.63;0.93;;;5.80;85.10;;;;;;5037030;28;20030;-61
2024/03/24 08:12:42;;;;;;;1.88;0.68;;;5.90;84.20;;;;;;5031224;28;20283;-61
2024/03/24 08:15:08;;;;;;;1.80;0.60;;;5.90;83.00;;;;;;5032025;28;20037;-61
2024/03/24 08:17:34;;;;;;;2.67;0.90;;;6.00;82.70;;;;;;5031668;28;20064;-60
2024/03/24 08:19:59;;;;;;;2.78;0.70;;;6.00;82.20;;;;;;5033894;28;20025;-62
2024/03/24 08:22:25;;;;;;;1.77;0.90;;;6.10;81.60;;;;;;5033357;28;20041;-62
2024/03/24 08:24:51;;;;;;;1.50;0.70;;;6.10;81.90;;;;;;5039249;28;20040;-61
2024/03/24 08:27:17;;;;;;;0.82;0.57;;;6.20;80.10;;;;;;5039749;28;20036;-60
2024/03/24 08:29:43;;;;;;;2.17;1.15;;;6.20;79.50;;;;;;5037780;28;20041;-61
2024/03/24 08:32:08;;;;;;;2.97;0.80;;;6.30;80.20;;;;;;5037034;28;20049;-60
2024/03/24 08:34:34;;;;;;;0.75;0.65;;;6.30;80.10;;;;;;5035678;28;20044;-60
2024/03/24 08:36:59;;;;;;;2.05;0.70;;;6.40;79.70;;;;;;5034532;28;20092;-62
2024/03/24 08:39:25;;;;;;;1.45;0.80;;;6.40;80.00;;;;;;5034780;28;20048;-61
2024/03/24 08:41:50;;;;;;;1.10;0.60;;;6.50;80.30;;;;;;5038050;28;20064;-61
2024/03/24 08:44:16;;;;;;;1.35;0.73;;;6.60;79.10;;;;;;5034977;28;20633;-59
2024/03/24 08:46:41;;;;;;;2.05;0.80;;;6.60;78.80;;;;;;5034843;28;20037;-61
2024/03/24 08:49:07;;;;;;;1.83;0.57;;;6.70;78.20;;;;;;5039082;28;20037;-60
2024/03/24 08:51:32;;;;;;;2.08;0.80;;;6.70;78.80;;;;;;5045576;28;20099;-61
2024/03/24 08:53:58;;;;;;;2.28;0.88;;;6.80;77.80;;;;;;5050348;28;20033;-61
2024/03/24 08:56:24;;;;;;;2.00;0.77;;;6.80;77.30;;;;;;5045037;28;20396;-60
2024/03/24 08:58:49;;;;;;;1.33;0.70;;;6.90;77.70;;;;;;5046434;28;20033;-60
2024/03/24 09:01:15;;;;;;;1.00;0.60;;;6.90;76.00;;;;;;5046395;28;20438;-62
2024/03/24 09:03:40;;;;;;;0.88;0.55;;;6.90;75.00;;;;;;5046983;28;20032;-61
2024/03/24 09:06:06;;;;;;;1.92;1.10;;;6.90;76.50;;;;;;5048100;28;20021;-60
2024/03/24 09:08:33;;;;;;;0.85;0.50;;;7.00;76.20;;;;;;5046879;28;20078;-60
2024/03/24 09:10:58;;;;;;;2.45;0.80;;;7.10;77.00;;;;;;5047606;28;20032;-60
2024/03/24 09:13:24;;;;;;;2.05;0.90;;;7.10;75.40;;;;;;5046730;28;20037;-59
2024/03/24 09:15:50;;;;;;;1.50;0.70;;;7.20;75.50;;;;;;5046423;28;20164;-62
2024/03/24 09:18:16;;;;;;;1.38;0.50;;;7.20;75.30;;;;;;5048884;28;20029;-59
2024/03/24 09:20:42;;;;;;;3.15;1.05;;;7.10;75.30;;;;;;5047040;28;20060;-61
2024/03/24 09:23:07;;;;;;;2.35;1.10;;;7.10;75.30;;;;;;5042451;28;20408;-62
2024/03/24 09:25:33;;;;;;;0.90;0.52;;;7.20;75.30;;;;;;5046916;28;20400;-61
2024/03/24 09:27:59;;;;;;;1.95;0.68;;;7.10;76.10;;;;;;5046040;28;20416;-62
2024/03/24 09:30:25;;;;;;;0.63;0.57;;;7.10;76.10;;;;;;5044450;28;20037;-59
2024/03/24 09:32:51;;;;;;;1.52;0.73;;;7.10;76.30;;;;;;5044107;28;20041;-61
2024/03/24 09:35:17;;;;;;;2.58;0.60;;;7.10;75.90;;;;;;5049386;28;20029;-60
2024/03/24 09:37:43;;;;;;;2.58;0.60;;;7.20;76.40;;;;;;5047308;28;20025;-61
2024/03/24 09:40:10;;;;;;;2.47;0.57;;;7.20;76.10;;;;;;5042104;28;20026;-61
2024/03/24 09:42:36;;;;;;;0.77;0.30;;;7.20;76.90;;;;;;5044350;28;20045;-62
2024/03/24 09:45:03;;;;;;;1.25;0.28;;;7.30;77.00;;;;;;5041312;28;20024;-61
2024/03/24 09:47:32;;;;;;;0.32;0.32;;;7.40;74.70;;;;;;5045761;28;20087;-62
2024/03/24 09:50:00;;;;;;;0.43;0.30;;;7.50;75.20;;;;;;5044367;28;20040;-59
2024/03/24 09:52:32;;;;;;;2.15;0.60;;;7.60;73.30;;;;;;5044996;28;20037;-60
2024/03/24 09:54:58;;;;;;;1.17;0.40;;;7.70;73.70;;;;;;5043383;28;20037;-61
2024/03/24 09:57:30;;;;;;;0.35;0.30;;;7.80;72.90;;;;;;5045138;28;20374;-61
2024/03/24 09:59:57;;;;;;;1.65;0.60;;;7.80;73.50;;;;;;5030587;28;20045;-62
2024/03/24 10:02:26;;;;;;;0.85;0.30;;;7.90;73.90;;;;;;5039847;28;20124;-62
2024/03/24 10:04:53;;;;;;;1.63;0.38;;;7.90;73.30;;;;;;5037468;28;20059;-59
2024/03/24 10:07:19;;;;;;;1.45;0.40;;;8.00;73.20;;;;;;5038471;28;20033;-61
2024/03/24 10:09:44;;;;;;;1.67;0.50;;;8.00;73.00;;;;;;5047322;28;20056;-60
2024/03/24 10:12:12;;;;;;;0.40;0.20;;;8.10;73.00;;;;;;5036154;28;20040;-59
2024/03/24 10:14:38;;;;;;;1.00;0.30;;;8.10;72.00;;;;;;5042188;28;20045;-61
2024/03/24 10:17:11;;;;;;;0.68;0.28;;;8.20;69.40;;;;;;5047535;28;20048;-59
2024/03/24 10:19:37;;;;;;;0.70;0.32;;;8.20;70.30;;;;;;5044500;28;20033;-61
2024/03/24 10:22:03;;;;;;;0.85;0.45;;;8.20;70.90;;;;;;5043674;28;20033;-62
2024/03/24 10:24:28;;;;;;;1.00;0.70;;;8.30;71.10;;;;;;5043513;28;20118;-58
2024/03/24 10:26:58;;;;;;;1.05;0.60;;;8.30;69.00;;;;;;5044843;28;20049;-61
2024/03/24 10:29:23;;;;;;;1.33;0.90;;;8.40;68.90;;;;;;5046271;28;20029;-60
2024/03/24 10:31:49;;;;;;;1.45;0.80;;;8.40;69.30;;;;;;5044700;28;20040;-62
2024/03/24 10:34:15;;;;;;;1.60;0.80;;;8.40;69.90;;;;;;5045837;28;20032;-60
2024/03/24 10:36:42;;;;;;;1.30;1.10;;;8.50;71.60;;;;;;5045966;28;20295;-60
2024/03/24 10:39:07;;;;;;;1.20;0.80;;;8.50;70.70;;;;;;5046283;28;20059;-60
2024/03/24 10:41:35;;;;;;;2.38;1.10;;;8.60;70.00;;;;;;5048254;28;20079;-61
2024/03/24 10:44:02;;;;;;;3.10;1.20;;;8.60;68.30;;;;;;5046878;28;20137;-60
2024/03/24 10:46:32;;;;;;;2.55;1.10;;;8.60;68.30;;;;;;5046781;28;20094;-62
2024/03/24 10:49:01;;;;;;;1.73;0.82;;;8.70;69.30;;;;;;5043284;28;20179;-60
2024/03/24 10:51:31;;;;;;;2.20;1.20;;;8.80;68.90;;;;;;5047827;28;20028;-60
2024/03/24 10:54:03;;;;;;;2.15;1.10;;;8.90;68.90;;;;;;5047850;28;20115;-61
2024/03/24 10:56:32;;;;;;;1.42;1.20;;;8.90;68.20;;;;;;5047773;28;20037;-61
2024/03/24 10:59:02;;;;;;;2.22;1.40;;;9.00;68.10;;;;;;5048561;28;20182;-61
2024/03/24 11:01:29;;;;;;;1.90;1.40;;;9.00;67.40;;;;;;5050869;28;20033;-60
2024/03/24 11:03:59;;;;;;;2.17;1.58;;;9.10;67.00;;;;;;5045842;28;20032;-61
2024/03/24 11:06:30;;;;;;;2.63;1.50;;;9.00;65.70;;;;;;5049360;28;20041;-61
2024/03/24 11:08:56;;;;;;;2.28;1.50;;;9.00;61.80;;;;;;5041515;28;20460;-62
2024/03/24 11:11:22;;;;;;;2.53;1.50;;;8.90;63.40;;;;;;5048813;28;20158;-61
2024/03/24 11:13:49;;;;;;;3.00;1.90;;;8.80;62.60;;;;;;5048679;28;20040;-63
2024/03/24 11:16:23;;;;;;;1.73;1.50;;;8.80;64.00;;;;;;5050337;28;20044;-60
2024/03/24 11:18:48;;;;;;;2.88;1.40;;;8.80;62.90;;;;;;5051210;28;20542;-62
2024/03/24 11:21:37;;;;;;;2.35;1.30;;;8.70;63.80;;;;;;5047089;28;20037;-62
2024/03/24 11:24:07;;;;;;;3.50;1.67;;;8.70;61.80;;;;;;5045031;28;20528;-60
2024/03/24 11:26:33;;;;;;;3.63;1.50;;;8.70;63.20;;;;;;5046639;28;20039;-61
2024/03/24 11:28:58;;;;;;;2.97;1.63;;;8.60;63.10;;;;;;5048618;28;20084;-60
2024/03/24 11:31:24;;;;;;;2.65;1.50;;;8.60;63.70;;;;;;5045710;28;20525;-59
2024/03/24 11:34:11;;;;;;;2.08;1.45;;;8.60;63.40;;;;;;5052617;28;20120;-60
2024/03/24 11:36:41;;;;;;;3.90;1.50;;;8.70;63.30;;;;;;5045894;28;20033;-62
2024/03/24 11:39:11;;;;;;;2.67;1.40;;;8.60;64.50;;;;;;5049824;28;20404;-60
2024/03/24 11:41:50;;;;;;;2.97;1.15;;;8.70;65.00;;;;;;5050658;28;20048;-61
2024/03/24 11:44:16;;;;;;;2.40;1.40;;;8.70;64.50;;;;;;5052137;28;20240;-61
2024/03/24 11:46:42;;;;;;;1.48;0.93;;;8.80;64.30;;;;;;5051023;28;20029;-61
2024/03/24 11:49:11;;;;;;;2.90;1.42;;;8.80;64.80;;;;;;5051427;28;20044;-61
2024/03/24 11:51:37;;;;;;;2.92;1.42;;;8.80;64.30;;;;;;5051871;28;20057;-62
2024/03/24 11:54:04;;;;;;;2.05;1.15;;;8.90;63.60;;;;;;5054379;28;20039;-61
2024/03/24 11:56:31;;;;;;;4.85;1.40;;;8.90;64.30;;;;;;5049454;28;20041;-62
2024/03/24 11:58:57;;;;;;;2.92;1.50;;;8.90;64.00;;;;;;5045993;28;20029;-60
2024/03/24 12:01:24;;;;;;;2.08;1.30;;;8.90;64.40;;;;;;5053237;28;20034;-61
2024/03/24 12:03:51;;;;;;;2.83;1.50;;;9.00;64.10;;;;;;5049206;28;20033;-60
2024/03/24 12:06:18;;;;;;;1.40;1.27;;;9.00;64.50;;;;;;5044867;28;20431;-62
2024/03/24 12:08:49;;;;;;;2.17;1.30;;;9.10;63.80;;;;;;5046807;28;20408;-63
2024/03/24 12:11:15;;;;;;;2.03;1.15;;;9.10;62.60;;;;;;5045111;28;20033;-62
2024/03/24 12:13:41;;;;;;;1.95;1.23;;;9.10;62.70;;;;;;5045865;28;20043;-62
2024/03/24 12:16:07;;;;;;;2.03;1.38;;;9.10;63.20;;;;;;5046818;28;20123;-62
2024/03/24 12:18:34;;;;;;;3.22;1.48;;;9.10;63.40;;;;;;5046812;28;20033;-62
2024/03/24 12:21:02;;;;;;;3.17;1.17;;;9.20;63.50;;;;;;5053143;28;20029;-61
2024/03/24 12:23:29;;;;;;;2.67;1.35;;;9.20;63.40;;;;;;5050818;28;20033;-61
2024/03/24 12:25:55;;;;;;;2.60;1.10;;;9.30;61.80;;;;;;5050986;28;20094;-61
2024/03/24 12:28:21;;;;;;;1.27;0.80;;;9.20;62.60;;;;;;5050436;28;20037;-61
2024/03/24 12:30:52;;;;;;;1.70;0.98;;;9.20;62.60;;;;;;5049540;28;20047;-60
2024/03/24 12:33:19;;;;;;;1.30;0.90;;;9.20;62.80;;;;;;5049173;28;20557;-61
2024/03/24 12:35:45;;;;;;;1.60;1.00;;;9.30;62.90;;;;;;5049941;28;20476;-61
2024/03/24 12:38:12;;;;;;;1.70;0.90;;;9.30;62.90;;;;;;5053593;28;20111;-61
2024/03/24 12:40:38;;;;;;;2.30;1.15;;;9.30;63.60;;;;;;5050033;28;20037;-63
2024/03/24 12:43:12;;;;;;;0.90;0.80;;;9.40;62.20;;;;;;5049052;28;20040;-61
2024/03/24 12:45:48;;;;;;;3.28;1.27;;;9.30;61.90;;;;;;5052050;28;20029;-62
2024/03/24 12:48:16;;;;;;;1.95;1.00;;;9.40;62.40;;;;;;5049824;28;20033;-63
2024/03/24 12:50:42;;;;;;;2.22;1.08;;;9.40;61.00;;;;;;5051594;28;20547;-61
2024/03/24 12:53:17;;;;;;;1.05;0.93;;;9.40;61.30;;;;;;5051646;28;20032;-62